Cincinnati, Ohio
Current Conditions -  °F | °C
As of 5:53 PM on Tuesday 25 Nov 2014 (Local Time) from KLUK Reporting Station
Clear Clear  
Wind Chill: 38°   Ceiling: Unl
Heat Index: 38°   Visibility: 10mi
Dew Point: 28°   Wind: 3mph
Humidity: 68%   Direction: 330°NNW
Pressure: 30.16"   Gusts: NA
Location:  39.11°N, 84.5°W
Report Text: KLUK 252253Z 33003KT 10SM CLR 03/M02 A3016 RMK AO2 SLP216 T00331022
Loading
Personal Weather Stations






























Interactive Weather Map New forecast layout! Learn more

10-Day Weather Forecast

Advertisements
Track Severe Weather on mobile